sensor_id;sensor_type;location;lat;lon;timestamp;P1;durP1;ratioP1;P2;durP2;ratioP2
9076;SDS011;4574;51.072;17.174;2023-04-01T00:01:17;4.27;;;3.57;;
9076;SDS011;4574;51.072;17.174;2023-04-01T00:03:47;5.00;;;3.17;;
9076;SDS011;4574;51.072;17.174;2023-04-01T00:06:17;7.87;;;4.07;;
9076;SDS011;4574;51.072;17.174;2023-04-01T00:08:46;6.27;;;4.17;;
9076;SDS011;4574;51.072;17.174;2023-04-01T00:11:15;6.93;;;3.67;;
9076;SDS011;4574;51.072;17.174;2023-04-01T00:13:46;7.80;;;4.03;;
9076;SDS011;4574;51.072;17.174;2023-04-01T00:16:15;5.20;;;4.30;;
9076;SDS011;4574;51.072;17.174;2023-04-01T00:18:50;4.90;;;3.83;;
9076;SDS011;4574;51.072;17.174;2023-04-01T00:21:19;8.90;;;6.33;;
9076;SDS011;4574;51.072;17.174;2023-04-01T00:23:48;6.17;;;4.67;;
9076;SDS011;4574;51.072;17.174;2023-04-01T00:26:18;5.97;;;4.50;;
9076;SDS011;4574;51.072;17.174;2023-04-01T00:28:48;5.57;;;4.73;;
9076;SDS011;4574;51.072;17.174;2023-04-01T00:31:17;6.13;;;4.80;;
9076;SDS011;4574;51.072;17.174;2023-04-01T00:33:46;9.67;;;4.90;;
9076;SDS011;4574;51.072;17.174;2023-04-01T00:36:17;6.00;;;5.40;;
9076;SDS011;4574;51.072;17.174;2023-04-01T00:38:48;6.73;;;5.40;;
9076;SDS011;4574;51.072;17.174;2023-04-01T00:41:18;5.47;;;4.67;;
9076;SDS011;4574;51.072;17.174;2023-04-01T00:43:49;5.13;;;4.53;;
9076;SDS011;4574;51.072;17.174;2023-04-01T00:46:21;6.87;;;5.07;;
9076;SDS011;4574;51.072;17.174;2023-04-01T00:52:32;5.80;;;4.70;;
9076;SDS011;4574;51.072;17.174;2023-04-01T00:55:00;6.57;;;5.37;;
9076;SDS011;4574;51.072;17.174;2023-04-01T00:57:34;5.70;;;5.10;;
9076;SDS011;4574;51.072;17.174;2023-04-01T01:00:05;10.00;;;5.70;;
9076;SDS011;4574;51.072;17.174;2023-04-01T01:02:37;8.97;;;5.70;;
9076;SDS011;4574;51.072;17.174;2023-04-01T01:05:11;6.83;;;6.10;;
9076;SDS011;4574;51.072;17.174;2023-04-01T01:07:42;6.90;;;5.90;;
9076;SDS011;4574;51.072;17.174;2023-04-01T01:10:18;8.90;;;5.93;;
9076;SDS011;4574;51.072;17.174;2023-04-01T01:12:53;7.40;;;5.83;;
9076;SDS011;4574;51.072;17.174;2023-04-01T01:15:30;10.17;;;5.93;;
9076;SDS011;4574;51.072;17.174;2023-04-01T01:18:05;7.13;;;5.27;;
9076;SDS011;4574;51.072;17.174;2023-04-01T01:20:48;7.57;;;5.47;;
9076;SDS011;4574;51.072;17.174;2023-04-01T01:23:42;7.50;;;5.40;;
9076;SDS011;4574;51.072;17.174;2023-04-01T01:26:37;7.57;;;5.83;;
9076;SDS011;4574;51.072;17.174;2023-04-01T01:31:58;6.90;;;5.50;;
9076;SDS011;4574;51.072;17.174;2023-04-01T01:34:34;7.13;;;5.40;;
9076;SDS011;4574;51.072;17.174;2023-04-01T01:37:10;6.70;;;5.30;;
9076;SDS011;4574;51.072;17.174;2023-04-01T01:39:43;8.07;;;5.20;;
9076;SDS011;4574;51.072;17.174;2023-04-01T01:42:15;8.97;;;5.43;;
9076;SDS011;4574;51.072;17.174;2023-04-01T01:44:46;9.63;;;5.27;;
9076;SDS011;4574;51.072;17.174;2023-04-01T01:47:18;7.47;;;5.50;;
9076;SDS011;4574;51.072;17.174;2023-04-01T01:49:48;6.43;;;4.93;;
9076;SDS011;4574;51.072;17.174;2023-04-01T01:52:20;7.47;;;5.50;;
9076;SDS011;4574;51.072;17.174;2023-04-01T01:54:50;6.03;;;5.10;;
9076;SDS011;4574;51.072;17.174;2023-04-01T01:57:22;5.90;;;5.30;;
9076;SDS011;4574;51.072;17.174;2023-04-01T01:59:54;5.50;;;5.00;;
9076;SDS011;4574;51.072;17.174;2023-04-01T02:02:26;6.27;;;5.13;;
9076;SDS011;4574;51.072;17.174;2023-04-01T02:04:58;7.67;;;5.90;;
9076;SDS011;4574;51.072;17.174;2023-04-01T02:07:30;6.23;;;5.37;;
9076;SDS011;4574;51.072;17.174;2023-04-01T02:10:01;8.43;;;5.17;;
9076;SDS011;4574;51.072;17.174;2023-04-01T02:12:30;6.47;;;5.33;;
9076;SDS011;4574;51.072;17.174;2023-04-01T02:15:04;7.33;;;5.37;;
9076;SDS011;4574;51.072;17.174;2023-04-01T02:17:37;5.90;;;5.27;;
9076;SDS011;4574;51.072;17.174;2023-04-01T02:20:08;8.20;;;6.13;;
9076;SDS011;4574;51.072;17.174;2023-04-01T02:22:44;5.53;;;5.03;;
9076;SDS011;4574;51.072;17.174;2023-04-01T02:25:17;6.53;;;5.17;;
9076;SDS011;4574;51.072;17.174;2023-04-01T02:27:48;6.03;;;4.80;;
9076;SDS011;4574;51.072;17.174;2023-04-01T02:30:17;7.83;;;5.30;;
9076;SDS011;4574;51.072;17.174;2023-04-01T02:32:47;6.00;;;5.40;;
9076;SDS011;4574;51.072;17.174;2023-04-01T02:35:17;8.43;;;5.77;;
9076;SDS011;4574;51.072;17.174;2023-04-01T02:37:48;5.70;;;5.07;;
9076;SDS011;4574;51.072;17.174;2023-04-01T02:40:18;6.53;;;4.77;;
9076;SDS011;4574;51.072;17.174;2023-04-01T02:42:47;7.77;;;5.57;;
9076;SDS011;4574;51.072;17.174;2023-04-01T02:45:16;5.40;;;4.90;;
9076;SDS011;4574;51.072;17.174;2023-04-01T02:47:44;5.67;;;5.07;;
9076;SDS011;4574;51.072;17.174;2023-04-01T02:50:13;4.87;;;4.23;;
9076;SDS011;4574;51.072;17.174;2023-04-01T02:52:42;7.53;;;4.63;;
9076;SDS011;4574;51.072;17.174;2023-04-01T02:55:12;5.53;;;4.50;;
9076;SDS011;4574;51.072;17.174;2023-04-01T02:57:40;7.10;;;4.70;;
9076;SDS011;4574;51.072;17.174;2023-04-01T03:00:09;6.20;;;4.37;;
9076;SDS011;4574;51.072;17.174;2023-04-01T03:02:39;4.83;;;4.37;;
9076;SDS011;4574;51.072;17.174;2023-04-01T03:05:08;5.90;;;4.43;;
9076;SDS011;4574;51.072;17.174;2023-04-01T03:07:36;5.80;;;4.27;;
9076;SDS011;4574;51.072;17.174;2023-04-01T03:10:05;6.37;;;4.60;;
9076;SDS011;4574;51.072;17.174;2023-04-01T03:12:36;8.63;;;4.53;;
9076;SDS011;4574;51.072;17.174;2023-04-01T03:15:05;4.83;;;4.10;;
9076;SDS011;4574;51.072;17.174;2023-04-01T03:17:37;6.03;;;4.43;;
9076;SDS011;4574;51.072;17.174;2023-04-01T03:20:06;6.43;;;4.00;;
9076;SDS011;4574;51.072;17.174;2023-04-01T03:22:37;6.77;;;3.83;;
9076;SDS011;4574;51.072;17.174;2023-04-01T03:25:08;5.93;;;4.70;;
9076;SDS011;4574;51.072;17.174;2023-04-01T03:27:39;4.67;;;4.10;;
9076;SDS011;4574;51.072;17.174;2023-04-01T03:30:08;4.40;;;3.97;;
9076;SDS011;4574;51.072;17.174;2023-04-01T03:32:37;5.80;;;4.50;;
9076;SDS011;4574;51.072;17.174;2023-04-01T03:35:06;4.70;;;3.90;;
9076;SDS011;4574;51.072;17.174;2023-04-01T03:37:36;4.00;;;3.60;;
9076;SDS011;4574;51.072;17.174;2023-04-01T03:40:05;5.23;;;4.20;;
9076;SDS011;4574;51.072;17.174;2023-04-01T03:42:34;4.37;;;3.50;;
9076;SDS011;4574;51.072;17.174;2023-04-01T03:45:05;4.40;;;4.00;;
9076;SDS011;4574;51.072;17.174;2023-04-01T03:47:34;5.33;;;3.90;;
9076;SDS011;4574;51.072;17.174;2023-04-01T03:50:03;4.13;;;3.53;;
9076;SDS011;4574;51.072;17.174;2023-04-01T03:52:34;4.00;;;3.10;;
9076;SDS011;4574;51.072;17.174;2023-04-01T03:55:03;6.43;;;4.23;;
9076;SDS011;4574;51.072;17.174;2023-04-01T03:57:32;7.77;;;4.00;;
9076;SDS011;4574;51.072;17.174;2023-04-01T04:00:01;4.73;;;3.73;;
9076;SDS011;4574;51.072;17.174;2023-04-01T04:02:31;7.13;;;3.40;;
9076;SDS011;4574;51.072;17.174;2023-04-01T04:04:59;4.43;;;4.03;;
9076;SDS011;4574;51.072;17.174;2023-04-01T04:07:28;5.13;;;4.50;;
9076;SDS011;4574;51.072;17.174;2023-04-01T04:09:56;5.60;;;4.10;;
9076;SDS011;4574;51.072;17.174;2023-04-01T04:12:25;6.83;;;4.23;;
9076;SDS011;4574;51.072;17.174;2023-04-01T04:14:54;5.00;;;3.70;;
9076;SDS011;4574;51.072;17.174;2023-04-01T04:17:22;6.37;;;4.17;;
9076;SDS011;4574;51.072;17.174;2023-04-01T04:19:52;6.33;;;3.90;;
9076;SDS011;4574;51.072;17.174;2023-04-01T04:22:21;4.93;;;4.23;;
9076;SDS011;4574;51.072;17.174;2023-04-01T04:24:49;6.73;;;4.53;;
9076;SDS011;4574;51.072;17.174;2023-04-01T04:27:18;8.20;;;4.70;;
9076;SDS011;4574;51.072;17.174;2023-04-01T04:29:47;5.60;;;4.33;;
9076;SDS011;4574;51.072;17.174;2023-04-01T04:32:15;5.70;;;4.73;;
9076;SDS011;4574;51.072;17.174;2023-04-01T04:34:44;7.33;;;4.80;;
9076;SDS011;4574;51.072;17.174;2023-04-01T04:37:14;5.70;;;3.80;;
9076;SDS011;4574;51.072;17.174;2023-04-01T04:39:42;5.27;;;4.30;;
9076;SDS011;4574;51.072;17.174;2023-04-01T04:42:11;4.23;;;3.83;;
9076;SDS011;4574;51.072;17.174;2023-04-01T04:44:39;5.17;;;4.20;;
9076;SDS011;4574;51.072;17.174;2023-04-01T04:47:08;4.93;;;4.00;;
9076;SDS011;4574;51.072;17.174;2023-04-01T04:49:36;6.07;;;3.70;;
9076;SDS011;4574;51.072;17.174;2023-04-01T04:52:05;4.13;;;3.50;;
9076;SDS011;4574;51.072;17.174;2023-04-01T04:54:35;4.93;;;3.27;;
9076;SDS011;4574;51.072;17.174;2023-04-01T04:57:03;4.50;;;3.30;;
9076;SDS011;4574;51.072;17.174;2023-04-01T04:59:32;4.07;;;3.00;;
9076;SDS011;4574;51.072;17.174;2023-04-01T05:02:00;3.60;;;3.27;;
9076;SDS011;4574;51.072;17.174;2023-04-01T05:04:29;3.70;;;2.97;;
9076;SDS011;4574;51.072;17.174;2023-04-01T05:07:02;3.57;;;2.93;;
9076;SDS011;4574;51.072;17.174;2023-04-01T05:09:30;4.27;;;2.80;;
9076;SDS011;4574;51.072;17.174;2023-04-01T05:12:01;3.60;;;3.27;;
9076;SDS011;4574;51.072;17.174;2023-04-01T05:14:30;3.27;;;2.97;;
9076;SDS011;4574;51.072;17.174;2023-04-01T05:16:59;5.53;;;3.03;;
9076;SDS011;4574;51.072;17.174;2023-04-01T05:19:27;4.07;;;3.00;;
9076;SDS011;4574;51.072;17.174;2023-04-01T05:21:56;4.00;;;2.90;;
9076;SDS011;4574;51.072;17.174;2023-04-01T05:24:24;3.90;;;3.50;;
9076;SDS011;4574;51.072;17.174;2023-04-01T05:26:53;7.03;;;3.57;;
9076;SDS011;4574;51.072;17.174;2023-04-01T05:29:24;4.43;;;3.40;;
9076;SDS011;4574;51.072;17.174;2023-04-01T05:31:52;4.57;;;3.63;;
9076;SDS011;4574;51.072;17.174;2023-04-01T05:34:21;3.23;;;2.60;;
9076;SDS011;4574;51.072;17.174;2023-04-01T05:36:50;4.70;;;3.53;;
9076;SDS011;4574;51.072;17.174;2023-04-01T05:39:18;4.10;;;3.70;;
9076;SDS011;4574;51.072;17.174;2023-04-01T05:41:47;6.23;;;3.27;;
9076;SDS011;4574;51.072;17.174;2023-04-01T05:44:15;3.40;;;3.10;;
9076;SDS011;4574;51.072;17.174;2023-04-01T05:46:45;4.53;;;3.40;;
9076;SDS011;4574;51.072;17.174;2023-04-01T05:49:14;9.47;;;3.73;;
9076;SDS011;4574;51.072;17.174;2023-04-01T05:51:43;5.57;;;3.33;;
9076;SDS011;4574;51.072;17.174;2023-04-01T05:54:11;3.97;;;3.20;;
9076;SDS011;4574;51.072;17.174;2023-04-01T05:56:40;5.33;;;3.77;;
9076;SDS011;4574;51.072;17.174;2023-04-01T05:59:09;4.43;;;3.37;;
9076;SDS011;4574;51.072;17.174;2023-04-01T06:01:38;6.13;;;3.70;;
9076;SDS011;4574;51.072;17.174;2023-04-01T06:04:10;5.03;;;3.60;;
9076;SDS011;4574;51.072;17.174;2023-04-01T06:06:44;5.80;;;4.03;;
9076;SDS011;4574;51.072;17.174;2023-04-01T06:09:14;4.60;;;3.50;;
9076;SDS011;4574;51.072;17.174;2023-04-01T06:11:48;3.80;;;3.03;;
9076;SDS011;4574;51.072;17.174;2023-04-01T06:14:27;7.33;;;3.77;;
9076;SDS011;4574;51.072;17.174;2023-04-01T06:17:14;6.70;;;3.33;;
9076;SDS011;4574;51.072;17.174;2023-04-01T06:19:54;5.77;;;3.33;;
9076;SDS011;4574;51.072;17.174;2023-04-01T06:35:02;3.23;;;2.80;;
9076;SDS011;4574;51.072;17.174;2023-04-01T06:37:54;4.20;;;2.90;;
9076;SDS011;4574;51.072;17.174;2023-04-01T06:40:59;5.07;;;2.80;;
9076;SDS011;4574;51.072;17.174;2023-04-01T06:43:49;3.57;;;2.97;;
9076;SDS011;4574;51.072;17.174;2023-04-01T06:46:29;3.30;;;3.00;;
9076;SDS011;4574;51.072;17.174;2023-04-01T06:49:05;6.13;;;3.00;;
9076;SDS011;4574;51.072;17.174;2023-04-01T06:51:47;3.97;;;3.10;;
9076;SDS011;4574;51.072;17.174;2023-04-01T06:54:24;2.83;;;2.63;;
9076;SDS011;4574;51.072;17.174;2023-04-01T06:57:00;5.10;;;3.03;;
9076;SDS011;4574;51.072;17.174;2023-04-01T06:59:33;7.70;;;4.00;;
9076;SDS011;4574;51.072;17.174;2023-04-01T07:02:05;3.77;;;2.97;;
9076;SDS011;4574;51.072;17.174;2023-04-01T07:04:48;5.43;;;3.10;;
9076;SDS011;4574;51.072;17.174;2023-04-01T07:07:24;5.07;;;3.50;;
9076;SDS011;4574;51.072;17.174;2023-04-01T07:10:02;4.37;;;3.57;;
9076;SDS011;4574;51.072;17.174;2023-04-01T07:12:39;3.67;;;2.97;;
9076;SDS011;4574;51.072;17.174;2023-04-01T07:15:16;4.63;;;3.27;;
9076;SDS011;4574;51.072;17.174;2023-04-01T07:17:48;3.87;;;3.37;;
9076;SDS011;4574;51.072;17.174;2023-04-01T07:20:22;3.20;;;2.90;;
9076;SDS011;4574;51.072;17.174;2023-04-01T07:22:57;3.60;;;3.17;;
9076;SDS011;4574;51.072;17.174;2023-04-01T07:25:28;3.90;;;2.80;;
9076;SDS011;4574;51.072;17.174;2023-04-01T07:28:00;5.23;;;3.10;;
9076;SDS011;4574;51.072;17.174;2023-04-01T07:30:33;3.93;;;2.60;;
9076;SDS011;4574;51.072;17.174;2023-04-01T07:33:14;3.53;;;2.50;;
9076;SDS011;4574;51.072;17.174;2023-04-01T07:35:50;4.73;;;3.10;;
9076;SDS011;4574;51.072;17.174;2023-04-01T07:38:29;4.37;;;2.67;;
9076;SDS011;4574;51.072;17.174;2023-04-01T07:41:11;2.60;;;2.40;;
9076;SDS011;4574;51.072;17.174;2023-04-01T07:43:53;3.93;;;2.63;;
9076;SDS011;4574;51.072;17.174;2023-04-01T07:49:27;4.50;;;2.50;;
9076;SDS011;4574;51.072;17.174;2023-04-01T07:52:04;2.93;;;2.53;;
9076;SDS011;4574;51.072;17.174;2023-04-01T07:54:40;3.00;;;2.70;;
9076;SDS011;4574;51.072;17.174;2023-04-01T07:57:17;7.37;;;2.90;;
9076;SDS011;4574;51.072;17.174;2023-04-01T07:59:51;4.90;;;2.80;;
9076;SDS011;4574;51.072;17.174;2023-04-01T08:02:30;5.77;;;3.27;;
9076;SDS011;4574;51.072;17.174;2023-04-01T08:05:14;3.13;;;2.80;;
9076;SDS011;4574;51.072;17.174;2023-04-01T08:07:50;2.73;;;2.47;;
9076;SDS011;4574;51.072;17.174;2023-04-01T08:10:30;2.80;;;2.50;;
9076;SDS011;4574;51.072;17.174;2023-04-01T08:13:07;4.00;;;2.80;;
9076;SDS011;4574;51.072;17.174;2023-04-01T08:15:45;3.73;;;2.90;;
9076;SDS011;4574;51.072;17.174;2023-04-01T08:18:23;3.30;;;2.40;;
9076;SDS011;4574;51.072;17.174;2023-04-01T08:21:01;6.60;;;2.50;;
9076;SDS011;4574;51.072;17.174;2023-04-01T08:23:32;5.40;;;3.10;;
9076;SDS011;4574;51.072;17.174;2023-04-01T08:26:06;3.13;;;2.37;;
9076;SDS011;4574;51.072;17.174;2023-04-01T08:28:43;3.90;;;2.90;;
9076;SDS011;4574;51.072;17.174;2023-04-01T08:31:16;6.37;;;2.87;;
9076;SDS011;4574;51.072;17.174;2023-04-01T08:33:48;5.80;;;3.33;;
9076;SDS011;4574;51.072;17.174;2023-04-01T08:36:22;4.17;;;2.93;;
9076;SDS011;4574;51.072;17.174;2023-04-01T08:38:55;4.43;;;2.87;;
9076;SDS011;4574;51.072;17.174;2023-04-01T08:41:40;6.00;;;2.57;;
9076;SDS011;4574;51.072;17.174;2023-04-01T08:44:32;6.30;;;2.80;;
9076;SDS011;4574;51.072;17.174;2023-04-01T08:47:20;4.60;;;2.67;;
9076;SDS011;4574;51.072;17.174;2023-04-01T08:50:19;4.43;;;2.50;;
9076;SDS011;4574;51.072;17.174;2023-04-01T08:53:00;3.10;;;2.80;;
9076;SDS011;4574;51.072;17.174;2023-04-01T08:55:44;4.63;;;2.90;;
9076;SDS011;4574;51.072;17.174;2023-04-01T08:58:35;4.80;;;3.20;;
9076;SDS011;4574;51.072;17.174;2023-04-01T09:01:22;5.97;;;3.57;;
9076;SDS011;4574;51.072;17.174;2023-04-01T09:06:58;4.97;;;3.50;;
9076;SDS011;4574;51.072;17.174;2023-04-01T09:09:55;7.97;;;3.27;;
9076;SDS011;4574;51.072;17.174;2023-04-01T09:12:49;7.13;;;3.40;;
9076;SDS011;4574;51.072;17.174;2023-04-01T09:15:40;4.93;;;2.87;;
9076;SDS011;4574;51.072;17.174;2023-04-01T09:18:29;5.97;;;4.40;;
9076;SDS011;4574;51.072;17.174;2023-04-01T09:21:24;3.30;;;3.00;;
9076;SDS011;4574;51.072;17.174;2023-04-01T09:24:26;4.23;;;3.07;;
9076;SDS011;4574;51.072;17.174;2023-04-01T09:27:10;4.07;;;3.03;;
9076;SDS011;4574;51.072;17.174;2023-04-01T09:33:07;6.43;;;3.30;;
9076;SDS011;4574;51.072;17.174;2023-04-01T09:36:02;3.53;;;2.87;;
9076;SDS011;4574;51.072;17.174;2023-04-01T09:38:37;7.10;;;2.80;;
9076;SDS011;4574;51.072;17.174;2023-04-01T09:41:16;5.20;;;2.70;;
9076;SDS011;4574;51.072;17.174;2023-04-01T09:43:55;6.03;;;2.57;;
9076;SDS011;4574;51.072;17.174;2023-04-01T09:46:36;4.27;;;2.43;;
9076;SDS011;4574;51.072;17.174;2023-04-01T09:49:26;3.57;;;2.50;;
9076;SDS011;4574;51.072;17.174;2023-04-01T09:52:11;4.97;;;2.90;;
9076;SDS011;4574;51.072;17.174;2023-04-01T09:54:58;4.03;;;2.50;;
9076;SDS011;4574;51.072;17.174;2023-04-01T09:57:39;4.53;;;2.80;;
9076;SDS011;4574;51.072;17.174;2023-04-01T10:10:25;4.60;;;3.13;;
9076;SDS011;4574;51.072;17.174;2023-04-01T10:13:22;3.47;;;3.10;;
9076;SDS011;4574;51.072;17.174;2023-04-01T10:26:02;4.30;;;2.60;;
9076;SDS011;4574;51.072;17.174;2023-04-01T10:41:14;3.70;;;2.30;;
9076;SDS011;4574;51.072;17.174;2023-04-01T10:44:11;2.83;;;2.53;;
9076;SDS011;4574;51.072;17.174;2023-04-01T10:50:11;3.10;;;2.07;;
9076;SDS011;4574;51.072;17.174;2023-04-01T10:56:05;3.13;;;2.60;;
9076;SDS011;4574;51.072;17.174;2023-04-01T11:02:12;1.73;;;1.60;;
9076;SDS011;4574;51.072;17.174;2023-04-01T11:08:55;1.50;;;1.40;;
9076;SDS011;4574;51.072;17.174;2023-04-01T11:15:12;1.60;;;1.50;;
9076;SDS011;4574;51.072;17.174;2023-04-01T11:18:11;1.73;;;1.63;;
9076;SDS011;4574;51.072;17.174;2023-04-01T11:21:23;1.40;;;1.30;;
9076;SDS011;4574;51.072;17.174;2023-04-01T11:24:26;1.87;;;1.50;;
9076;SDS011;4574;51.072;17.174;2023-04-01T11:27:17;1.63;;;1.40;;
9076;SDS011;4574;51.072;17.174;2023-04-01T11:30:12;3.43;;;1.40;;
9076;SDS011;4574;51.072;17.174;2023-04-01T11:32:50;1.40;;;1.30;;
9076;SDS011;4574;51.072;17.174;2023-04-01T11:35:34;1.47;;;1.37;;
9076;SDS011;4574;51.072;17.174;2023-04-01T11:38:15;2.17;;;1.40;;
9076;SDS011;4574;51.072;17.174;2023-04-01T11:40:52;1.30;;;1.20;;
9076;SDS011;4574;51.072;17.174;2023-04-01T11:43:29;1.60;;;1.50;;
9076;SDS011;4574;51.072;17.174;2023-04-01T11:46:07;1.30;;;1.30;;
9076;SDS011;4574;51.072;17.174;2023-04-01T11:48:51;1.40;;;1.30;;
9076;SDS011;4574;51.072;17.174;2023-04-01T11:51:33;4.07;;;1.70;;
9076;SDS011;4574;51.072;17.174;2023-04-01T11:54:19;2.67;;;1.67;;
9076;SDS011;4574;51.072;17.174;2023-04-01T11:57:03;2.83;;;1.50;;
9076;SDS011;4574;51.072;17.174;2023-04-01T12:00:02;1.63;;;1.40;;
9076;SDS011;4574;51.072;17.174;2023-04-01T12:02:48;1.97;;;1.23;;
9076;SDS011;4574;51.072;17.174;2023-04-01T12:05:34;1.30;;;1.00;;
9076;SDS011;4574;51.072;17.174;2023-04-01T12:08:13;0.87;;;0.87;;
9076;SDS011;4574;51.072;17.174;2023-04-01T12:10:54;1.00;;;1.00;;
9076;SDS011;4574;51.072;17.174;2023-04-01T12:13:31;1.53;;;1.10;;
9076;SDS011;4574;51.072;17.174;2023-04-01T12:16:12;1.20;;;1.10;;
9076;SDS011;4574;51.072;17.174;2023-04-01T12:19:08;1.53;;;1.00;;
9076;SDS011;4574;51.072;17.174;2023-04-01T12:21:44;2.17;;;1.10;;
9076;SDS011;4574;51.072;17.174;2023-04-01T12:24:26;1.10;;;1.00;;
9076;SDS011;4574;51.072;17.174;2023-04-01T12:27:13;0.83;;;0.83;;
9076;SDS011;4574;51.072;17.174;2023-04-01T12:30:06;1.10;;;1.10;;
9076;SDS011;4574;51.072;17.174;2023-04-01T12:32:50;0.90;;;0.90;;
9076;SDS011;4574;51.072;17.174;2023-04-01T12:35:32;2.27;;;1.10;;
9076;SDS011;4574;51.072;17.174;2023-04-01T12:38:14;1.07;;;1.00;;
9076;SDS011;4574;51.072;17.174;2023-04-01T12:40:56;1.37;;;1.20;;
9076;SDS011;4574;51.072;17.174;2023-04-01T12:43:55;1.20;;;1.10;;
9076;SDS011;4574;51.072;17.174;2023-04-01T12:46:55;0.93;;;0.90;;
9076;SDS011;4574;51.072;17.174;2023-04-01T12:49:36;1.03;;;1.00;;
9076;SDS011;4574;51.072;17.174;2023-04-01T12:52:27;2.00;;;1.50;;
9076;SDS011;4574;51.072;17.174;2023-04-01T12:58:15;1.20;;;1.10;;
9076;SDS011;4574;51.072;17.174;2023-04-01T13:01:27;2.60;;;1.30;;
9076;SDS011;4574;51.072;17.174;2023-04-01T13:04:09;1.20;;;1.10;;
9076;SDS011;4574;51.072;17.174;2023-04-01T13:07:08;1.10;;;1.10;;
9076;SDS011;4574;51.072;17.174;2023-04-01T13:09:55;1.33;;;1.23;;
9076;SDS011;4574;51.072;17.174;2023-04-01T13:12:40;1.27;;;1.17;;
9076;SDS011;4574;51.072;17.174;2023-04-01T13:15:40;1.30;;;1.20;;
9076;SDS011;4574;51.072;17.174;2023-04-01T13:18:17;1.40;;;1.30;;
9076;SDS011;4574;51.072;17.174;2023-04-01T13:20:59;1.57;;;1.23;;
9076;SDS011;4574;51.072;17.174;2023-04-01T13:23:39;3.07;;;1.20;;
9076;SDS011;4574;51.072;17.174;2023-04-01T13:26:23;1.30;;;1.20;;
9076;SDS011;4574;51.072;17.174;2023-04-01T13:28:58;1.30;;;1.20;;
9076;SDS011;4574;51.072;17.174;2023-04-01T13:31:38;1.53;;;1.27;;
9076;SDS011;4574;51.072;17.174;2023-04-01T13:34:17;2.83;;;1.50;;
9076;SDS011;4574;51.072;17.174;2023-04-01T13:37:13;1.73;;;1.60;;
9076;SDS011;4574;51.072;17.174;2023-04-01T13:39:56;2.00;;;1.57;;
9076;SDS011;4574;51.072;17.174;2023-04-01T13:42:35;2.47;;;1.50;;
9076;SDS011;4574;51.072;17.174;2023-04-01T13:45:14;1.80;;;1.63;;
9076;SDS011;4574;51.072;17.174;2023-04-01T13:50:57;2.20;;;1.90;;
9076;SDS011;4574;51.072;17.174;2023-04-01T13:56:41;2.67;;;2.10;;
9076;SDS011;4574;51.072;17.174;2023-04-01T13:59:33;2.13;;;1.93;;
9076;SDS011;4574;51.072;17.174;2023-04-01T14:02:21;3.57;;;2.47;;
9076;SDS011;4574;51.072;17.174;2023-04-01T14:05:07;2.40;;;2.20;;
9076;SDS011;4574;51.072;17.174;2023-04-01T14:07:51;16.30;;;9.00;;
9076;SDS011;4574;51.072;17.174;2023-04-01T14:10:34;5.00;;;3.40;;
9076;SDS011;4574;51.072;17.174;2023-04-01T14:13:12;4.37;;;3.13;;
9076;SDS011;4574;51.072;17.174;2023-04-01T14:15:52;3.37;;;3.03;;
9076;SDS011;4574;51.072;17.174;2023-04-01T14:18:42;5.43;;;3.50;;
9076;SDS011;4574;51.072;17.174;2023-04-01T14:21:23;3.43;;;2.80;;
9076;SDS011;4574;51.072;17.174;2023-04-01T14:24:07;2.90;;;2.60;;
9076;SDS011;4574;51.072;17.174;2023-04-01T14:29:43;2.33;;;1.50;;
9076;SDS011;4574;51.072;17.174;2023-04-01T14:32:27;2.77;;;1.50;;
9076;SDS011;4574;51.072;17.174;2023-04-01T14:35:17;1.53;;;1.43;;
9076;SDS011;4574;51.072;17.174;2023-04-01T14:38:15;1.63;;;1.33;;
9076;SDS011;4574;51.072;17.174;2023-04-01T14:40:58;1.73;;;1.50;;
9076;SDS011;4574;51.072;17.174;2023-04-01T14:43:47;1.97;;;1.70;;
9076;SDS011;4574;51.072;17.174;2023-04-01T14:46:40;1.47;;;1.33;;
9076;SDS011;4574;51.072;17.174;2023-04-01T14:49:32;2.70;;;1.70;;
9076;SDS011;4574;51.072;17.174;2023-04-01T14:52:04;2.40;;;1.87;;
9076;SDS011;4574;51.072;17.174;2023-04-01T14:54:38;2.53;;;1.90;;
9076;SDS011;4574;51.072;17.174;2023-04-01T14:57:11;2.60;;;1.70;;
9076;SDS011;4574;51.072;17.174;2023-04-01T14:59:45;3.93;;;1.63;;
9076;SDS011;4574;51.072;17.174;2023-04-01T15:02:38;2.30;;;1.90;;
9076;SDS011;4574;51.072;17.174;2023-04-01T15:05:26;3.97;;;2.23;;
9076;SDS011;4574;51.072;17.174;2023-04-01T15:10:52;1.77;;;1.67;;
9076;SDS011;4574;51.072;17.174;2023-04-01T15:16:41;3.10;;;2.00;;
9076;SDS011;4574;51.072;17.174;2023-04-01T15:19:24;4.43;;;2.20;;
9076;SDS011;4574;51.072;17.174;2023-04-01T15:22:08;7.67;;;4.20;;
9076;SDS011;4574;51.072;17.174;2023-04-01T15:24:56;12.17;;;6.37;;
9076;SDS011;4574;51.072;17.174;2023-04-01T15:27:35;11.37;;;6.80;;
9076;SDS011;4574;51.072;17.174;2023-04-01T15:30:18;21.37;;;9.20;;
9076;SDS011;4574;51.072;17.174;2023-04-01T15:33:00;18.73;;;9.30;;
9076;SDS011;4574;51.072;17.174;2023-04-01T15:35:38;17.87;;;10.33;;
9076;SDS011;4574;51.072;17.174;2023-04-01T15:38:17;19.43;;;11.37;;
9076;SDS011;4574;51.072;17.174;2023-04-01T15:40:57;40.47;;;27.47;;
9076;SDS011;4574;51.072;17.174;2023-04-01T15:43:38;30.57;;;23.17;;
9076;SDS011;4574;51.072;17.174;2023-04-01T15:49:15;15.57;;;13.50;;
9076;SDS011;4574;51.072;17.174;2023-04-01T15:51:56;15.43;;;12.13;;
9076;SDS011;4574;51.072;17.174;2023-04-01T15:57:40;23.00;;;15.27;;
9076;SDS011;4574;51.072;17.174;2023-04-01T16:00:28;22.13;;;15.23;;
9076;SDS011;4574;51.072;17.174;2023-04-01T16:03:10;11.27;;;8.73;;
9076;SDS011;4574;51.072;17.174;2023-04-01T16:05:55;9.30;;;6.60;;
9076;SDS011;4574;51.072;17.174;2023-04-01T16:08:43;8.50;;;6.70;;
9076;SDS011;4574;51.072;17.174;2023-04-01T16:11:34;9.20;;;6.57;;
9076;SDS011;4574;51.072;17.174;2023-04-01T16:14:16;9.30;;;7.00;;
9076;SDS011;4574;51.072;17.174;2023-04-01T16:16:58;10.40;;;6.10;;
9076;SDS011;4574;51.072;17.174;2023-04-01T16:22:23;9.40;;;6.80;;
9076;SDS011;4574;51.072;17.174;2023-04-01T16:25:01;9.23;;;6.67;;
9076;SDS011;4574;51.072;17.174;2023-04-01T16:27:49;9.77;;;7.17;;
9076;SDS011;4574;51.072;17.174;2023-04-01T16:30:33;9.03;;;6.80;;
9076;SDS011;4574;51.072;17.174;2023-04-01T16:33:08;9.97;;;7.03;;
9076;SDS011;4574;51.072;17.174;2023-04-01T16:35:42;10.23;;;7.17;;
9076;SDS011;4574;51.072;17.174;2023-04-01T16:38:16;11.80;;;6.93;;
9076;SDS011;4574;51.072;17.174;2023-04-01T16:40:57;13.43;;;9.03;;
9076;SDS011;4574;51.072;17.174;2023-04-01T16:43:40;20.43;;;13.43;;
9076;SDS011;4574;51.072;17.174;2023-04-01T16:46:17;21.20;;;12.97;;
9076;SDS011;4574;51.072;17.174;2023-04-01T16:49:00;25.50;;;13.57;;
9076;SDS011;4574;51.072;17.174;2023-04-01T16:51:35;25.67;;;13.17;;
9076;SDS011;4574;51.072;17.174;2023-04-01T16:54:11;32.83;;;14.50;;
9076;SDS011;4574;51.072;17.174;2023-04-01T16:56:47;29.87;;;14.07;;
9076;SDS011;4574;51.072;17.174;2023-04-01T16:59:24;30.40;;;17.73;;
9076;SDS011;4574;51.072;17.174;2023-04-01T17:02:01;31.00;;;20.43;;
9076;SDS011;4574;51.072;17.174;2023-04-01T17:04:33;21.00;;;16.40;;
9076;SDS011;4574;51.072;17.174;2023-04-01T17:07:11;17.70;;;14.17;;
9076;SDS011;4574;51.072;17.174;2023-04-01T17:10:02;17.10;;;12.20;;
9076;SDS011;4574;51.072;17.174;2023-04-01T17:12:50;18.20;;;13.53;;
9076;SDS011;4574;51.072;17.174;2023-04-01T17:15:33;13.53;;;11.50;;
9076;SDS011;4574;51.072;17.174;2023-04-01T17:18:05;14.63;;;11.60;;
9076;SDS011;4574;51.072;17.174;2023-04-01T17:20:43;14.73;;;11.53;;
9076;SDS011;4574;51.072;17.174;2023-04-01T17:23:19;21.03;;;16.50;;
9076;SDS011;4574;51.072;17.174;2023-04-01T17:25:58;30.03;;;21.20;;
9076;SDS011;4574;51.072;17.174;2023-04-01T17:28:56;47.37;;;30.27;;
9076;SDS011;4574;51.072;17.174;2023-04-01T17:31:41;47.57;;;28.90;;
9076;SDS011;4574;51.072;17.174;2023-04-01T17:34:35;35.70;;;20.93;;
9076;SDS011;4574;51.072;17.174;2023-04-01T17:37:20;28.77;;;16.43;;
9076;SDS011;4574;51.072;17.174;2023-04-01T17:40:00;31.73;;;19.47;;
9076;SDS011;4574;51.072;17.174;2023-04-01T17:42:46;92.80;;;48.37;;
9076;SDS011;4574;51.072;17.174;2023-04-01T17:45:21;61.17;;;34.03;;
9076;SDS011;4574;51.072;17.174;2023-04-01T17:47:58;34.37;;;20.90;;